Terminal Aerodrome Forecast
Issued by NWS Newport/Morehead City, NC

Home | Current Version | Previous Version | Text Only | Print | Product List | Glossary Off
Versions: 1 2 3 4 5 6 7 8 9 10 11 12 13 14 15 16 17 18 19 20 21 22 23 24 25 26

000
FTUS42 KMHX 281100
TAFEWN
TAF
KEWN 281126Z 2812/2912 23005KT P6SM SCT040 BKN120
     FM281900 23006KT P6SM OVC040
     FM290000 23003KT P6SM OVC020
     FM290500 27002KT 5SM BR VCSH OVC010
     FM290900 34002KT 2SM -RA BR OVC007=

USA.gov is the U.S. government's official web portal to all federal, state and local government web resources and services.